createdAt,value
2022-11-25T00:00:42.288Z,5.03
2022-11-25T00:03:28.202Z,5.25
2022-11-25T00:06:18.815Z,4.40
2022-11-25T00:09:11.710Z,4.00
2022-11-25T00:11:57.958Z,3.83
2022-11-25T00:14:43.997Z,3.80
2022-11-25T00:17:29.918Z,3.53
2022-11-25T00:20:16.211Z,3.50
2022-11-25T00:23:02.392Z,3.17
2022-11-25T00:25:48.443Z,3.13
2022-11-25T00:28:34.503Z,3.63
2022-11-25T00:31:23.108Z,3.35
2022-11-25T00:34:14.051Z,3.40
2022-11-25T00:37:00.324Z,3.70
2022-11-25T00:39:46.629Z,4.68
2022-11-25T00:42:51.438Z,4.95
2022-11-25T00:45:38.798Z,5.43
2022-11-25T00:48:25.397Z,5.38
2022-11-25T00:51:13.154Z,5.60
2022-11-25T00:53:59.375Z,5.60
2022-11-25T00:59:32.009Z,5.13
2022-11-25T01:02:19.418Z,5.43
2022-11-25T01:05:06.086Z,5.60
2022-11-25T01:07:53.636Z,6.05
2022-11-25T01:10:39.642Z,5.55
2022-11-25T01:13:25.924Z,4.10
2022-11-25T01:16:15.789Z,5.75
2022-11-25T01:19:02.997Z,5.90
2022-11-25T01:21:49.120Z,5.18
2022-11-25T01:24:35.827Z,5.30
2022-11-25T01:27:22.310Z,5.43
2022-11-25T01:30:09.246Z,4.90
2022-11-25T01:32:55.464Z,5.68
2022-11-25T01:35:41.537Z,5.15
2022-11-25T01:38:27.651Z,5.38
2022-11-25T01:41:14.956Z,5.80
2022-11-25T01:44:04.695Z,5.05
2022-11-25T01:47:19.993Z,5.07
2022-11-25T01:50:11.056Z,4.78
2022-11-25T01:52:58.503Z,5.60
2022-11-25T01:55:50.257Z,5.15
2022-11-25T01:58:38.084Z,4.97
2022-11-25T02:01:24.218Z,5.18
2022-11-25T02:07:03.773Z,4.55
2022-11-25T02:09:51.013Z,5.05
2022-11-25T02:12:40.446Z,4.88
2022-11-25T02:15:28.773Z,4.78
2022-11-25T02:18:15.901Z,5.47
2022-11-25T02:21:04.488Z,4.97
2022-11-25T02:24:01.959Z,4.72
2022-11-25T02:26:48.365Z,4.85
2022-11-25T02:29:34.999Z,4.20
2022-11-25T02:32:24.127Z,4.53
2022-11-25T02:35:31.494Z,4.57
2022-11-25T02:38:23.572Z,4.70
2022-11-25T02:41:19.619Z,4.32
2022-11-25T02:44:10.486Z,4.35
2022-11-25T02:46:58.115Z,4.57
2022-11-25T02:49:44.134Z,3.90
2022-11-25T02:52:30.040Z,4.30
2022-11-25T02:55:15.954Z,4.32
2022-11-25T02:58:01.976Z,4.80
2022-11-25T03:00:48.153Z,4.93
2022-11-25T03:03:35.674Z,4.68
2022-11-25T03:06:21.873Z,4.50
2022-11-25T03:09:08.404Z,4.18
2022-11-25T03:12:15.788Z,4.80
2022-11-25T03:15:01.912Z,4.47
2022-11-25T03:17:50.613Z,4.22
2022-11-25T03:20:37.334Z,4.32
2022-11-25T03:23:24.241Z,4.50
2022-11-25T03:26:13.226Z,4.43
2022-11-25T03:28:59.128Z,4.10
2022-11-25T03:31:46.620Z,4.22
2022-11-25T03:37:19.818Z,4.30
2022-11-25T03:40:09.963Z,4.10
2022-11-25T03:42:56.092Z,3.70
2022-11-25T03:45:43.342Z,3.42
2022-11-25T03:48:29.480Z,3.88
2022-11-25T03:54:03.136Z,4.53
2022-11-25T03:56:58.397Z,4.18
2022-11-25T03:59:45.271Z,4.13
2022-11-25T04:02:31.223Z,3.90
2022-11-25T04:05:17.819Z,3.70
2022-11-25T04:08:03.903Z,4.43
2022-11-25T04:10:52.360Z,4.53
2022-11-25T04:13:42.449Z,4.53
2022-11-25T04:16:28.508Z,3.72
2022-11-25T04:19:14.944Z,4.10
2022-11-25T04:22:02.817Z,4.03
2022-11-25T04:24:50.973Z,4.00
2022-11-25T04:27:42.769Z,4.03
2022-11-25T04:33:15.777Z,3.83
2022-11-25T04:36:04.221Z,4.25
2022-11-25T04:38:50.545Z,4.15
2022-11-25T04:41:37.375Z,4.00
2022-11-25T04:44:23.396Z,4.40
2022-11-25T04:47:10.493Z,25.13
2022-11-25T04:52:44.419Z,4.20
2022-11-25T04:55:30.987Z,4.20
2022-11-25T04:58:40.153Z,5.05
2022-11-25T05:01:27.422Z,11.25
2022-11-25T05:04:20.951Z,4.38
2022-11-25T05:07:07.921Z,4.18
2022-11-25T05:09:54.705Z,3.80
2022-11-25T05:12:57.398Z,3.60
2022-11-25T05:15:44.242Z,36.00
2022-11-25T05:18:32.142Z,18.23
2022-11-25T05:21:18.285Z,4.72
2022-11-25T05:24:04.888Z,3.83
2022-11-25T05:26:52.434Z,3.45
2022-11-25T05:29:39.173Z,3.13
2022-11-25T05:32:26.340Z,3.17
2022-11-25T05:35:15.407Z,2.92
2022-11-25T05:38:04.281Z,2.50
2022-11-25T05:40:51.352Z,3.92
2022-11-25T05:43:38.160Z,3.53
2022-11-25T05:46:24.940Z,3.25
2022-11-25T05:49:15.104Z,2.35
2022-11-25T05:52:02.267Z,2.10
2022-11-25T05:54:57.186Z,2.10
2022-11-25T05:57:43.844Z,2.50
2022-11-25T06:00:29.756Z,2.83
2022-11-25T06:03:24.913Z,3.13
2022-11-25T06:06:11.440Z,3.30
2022-11-25T06:08:58.291Z,3.35
2022-11-25T06:11:44.689Z,3.80
2022-11-25T06:14:31.240Z,4.07
2022-11-25T06:17:17.699Z,4.10
2022-11-25T06:20:09.828Z,3.10
2022-11-25T06:22:55.670Z,3.17
2022-11-25T06:25:48.129Z,2.85
2022-11-25T06:28:34.692Z,3.38
2022-11-25T06:31:23.183Z,3.15
2022-11-25T06:34:42.711Z,3.05
2022-11-25T06:37:43.591Z,3.42
2022-11-25T06:43:16.471Z,3.55
2022-11-25T06:46:05.094Z,2.97
2022-11-25T06:48:50.929Z,2.95
2022-11-25T06:51:37.028Z,3.00
2022-11-25T06:54:22.883Z,2.67
2022-11-25T06:57:16.197Z,2.20
2022-11-25T07:00:02.636Z,2.40
2022-11-25T07:05:35.457Z,2.80
2022-11-25T07:08:25.645Z,2.08
2022-11-25T07:11:25.985Z,1.95
2022-11-25T07:14:14.273Z,2.42
2022-11-25T07:17:00.376Z,4.32
2022-11-25T07:19:46.719Z,2.35
2022-11-25T07:22:32.809Z,2.50
2022-11-25T07:25:18.733Z,2.25
2022-11-25T07:28:04.897Z,2.03
2022-11-25T07:34:03.994Z,2.22
2022-11-25T07:36:50.825Z,2.50
2022-11-25T07:39:37.194Z,2.42
2022-11-25T07:42:23.522Z,2.75
2022-11-25T07:45:09.824Z,2.50
2022-11-25T07:48:03.019Z,2.58
2022-11-25T07:50:50.202Z,2.90
2022-11-25T07:53:36.530Z,3.17
2022-11-25T07:56:22.813Z,2.60
2022-11-25T07:59:21.556Z,2.67
2022-11-25T08:02:09.786Z,2.63
2022-11-25T08:04:56.182Z,2.75
2022-11-25T08:07:42.403Z,3.03
2022-11-25T08:10:28.389Z,3.80
2022-11-25T08:13:14.414Z,3.15
2022-11-25T08:16:01.077Z,3.33
2022-11-25T08:18:47.335Z,3.67
2022-11-25T08:21:33.562Z,3.50
2022-11-25T08:24:21.227Z,3.28
2022-11-25T08:27:07.608Z,2.83
2022-11-25T08:29:53.861Z,3.20
2022-11-25T08:32:39.990Z,3.85
2022-11-25T08:35:26.181Z,3.60
2022-11-25T08:38:13.301Z,2.78
2022-11-25T08:41:00.677Z,3.05
2022-11-25T08:43:46.619Z,2.72
2022-11-25T08:46:36.417Z,3.55
2022-11-25T08:49:22.604Z,3.05
2022-11-25T08:52:09.857Z,3.42
2022-11-25T08:54:56.128Z,3.35
2022-11-25T08:57:42.332Z,2.60
2022-11-25T09:00:28.354Z,2.60
2022-11-25T09:03:14.421Z,7.05
2022-11-25T09:06:01.406Z,5.18
2022-11-25T09:08:48.221Z,5.32
2022-11-25T09:11:34.561Z,3.85
2022-11-25T09:14:20.661Z,3.50
2022-11-25T09:17:13.722Z,4.30
2022-11-25T09:19:59.660Z,5.78
2022-11-25T09:22:45.803Z,7.07
2022-11-25T09:25:31.990Z,5.35
2022-11-25T09:28:18.471Z,4.80
2022-11-25T09:31:09.766Z,3.05
2022-11-25T09:33:56.556Z,2.88
2022-11-25T09:39:30.926Z,2.50
2022-11-25T09:43:13.657Z,2.55
2022-11-25T09:46:42.083Z,1.55
2022-11-25T09:52:57.399Z,2.30
2022-11-25T09:55:47.336Z,2.20
2022-11-25T09:58:41.720Z,2.50
2022-11-25T10:01:31.649Z,2.13
2022-11-25T10:04:43.745Z,2.40
2022-11-25T10:07:45.167Z,2.10
2022-11-25T10:10:40.666Z,2.53
2022-11-25T10:13:40.780Z,2.20
2022-11-25T10:17:10.347Z,2.40
2022-11-25T10:20:34.197Z,2.70
2022-11-25T10:23:28.457Z,2.90
2022-11-25T10:26:17.596Z,2.38
2022-11-25T10:29:14.632Z,2.30
2022-11-25T10:35:04.552Z,2.08
2022-11-25T10:37:55.186Z,2.40
2022-11-25T10:40:46.114Z,2.30
2022-11-25T10:43:33.727Z,1.90
2022-11-25T10:50:36.773Z,1.70
2022-11-25T10:53:26.625Z,1.95
2022-11-25T10:56:18.554Z,2.00
2022-11-25T10:59:14.421Z,1.85
2022-11-25T11:02:24.970Z,1.60
2022-11-25T11:05:11.109Z,1.50
2022-11-25T11:08:12.694Z,1.80
2022-11-25T11:11:20.427Z,1.60
2022-11-25T11:17:05.214Z,1.42
2022-11-25T11:20:07.785Z,1.50
2022-11-25T11:23:16.644Z,1.35
2022-11-25T11:26:09.828Z,0.95
2022-11-25T11:29:11.113Z,1.33
2022-11-25T11:32:03.614Z,1.10
2022-11-25T11:34:57.309Z,1.30
2022-11-25T11:37:52.652Z,1.10
2022-11-25T11:40:47.113Z,1.65
2022-11-25T11:43:44.807Z,1.20
2022-11-25T11:46:54.854Z,1.10
2022-11-25T11:50:15.568Z,1.08
2022-11-25T11:53:25.173Z,1.13
2022-11-25T11:56:37.186Z,1.15
2022-11-25T11:59:42.566Z,1.10
2022-11-25T12:02:36.989Z,1.13
2022-11-25T12:05:27.705Z,1.30
2022-11-25T12:08:13.778Z,0.93
2022-11-25T12:11:10.189Z,0.90
2022-11-25T12:14:17.579Z,0.90
2022-11-25T12:17:18.045Z,0.90
2022-11-25T12:20:31.141Z,1.00
2022-11-25T12:23:31.309Z,1.20
2022-11-25T12:26:39.278Z,1.52
2022-11-25T12:32:29.591Z,1.00
2022-11-25T12:35:22.094Z,1.13
2022-11-25T12:38:27.138Z,1.13
2022-11-25T12:41:16.384Z,0.93
2022-11-25T12:44:18.486Z,1.05
2022-11-25T12:47:11.442Z,1.00
2022-11-25T12:49:57.736Z,1.30
2022-11-25T12:52:59.036Z,1.25
2022-11-25T12:55:45.400Z,1.20
2022-11-25T12:58:49.710Z,1.80
2022-11-25T13:01:58.399Z,1.27
2022-11-25T13:08:51.896Z,1.10
2022-11-25T13:10:55.400Z,1.13
2022-11-25T13:15:02.234Z,1.33
2022-11-25T13:17:51.771Z,1.60
2022-11-25T13:20:47.475Z,1.50
2022-11-25T13:23:52.381Z,2.20
2022-11-25T13:26:47.480Z,1.85
2022-11-25T13:29:39.595Z,1.42
2022-11-25T13:32:34.372Z,1.30
2022-11-25T13:35:26.623Z,1.80
2022-11-25T13:38:34.193Z,1.58
2022-11-25T13:41:20.464Z,1.85
2022-11-25T13:44:28.469Z,1.63
2022-11-25T13:47:38.400Z,1.50
2022-11-25T13:50:36.749Z,1.92
2022-11-25T13:53:35.032Z,2.20
2022-11-25T13:56:21.445Z,2.53
2022-11-25T13:59:10.898Z,2.60
2022-11-25T14:02:28.875Z,2.30
2022-11-25T14:05:30.001Z,2.20
2022-11-25T14:08:38.180Z,2.20
2022-11-25T14:11:49.242Z,1.63
2022-11-25T14:14:38.461Z,1.77
2022-11-25T14:17:47.788Z,1.27
2022-11-25T14:20:46.106Z,1.65
2022-11-25T14:24:15.352Z,1.00
2022-11-25T14:27:01.952Z,1.50
2022-11-25T14:29:55.236Z,1.77
2022-11-25T14:32:59.788Z,1.33
2022-11-25T14:36:01.970Z,1.70
2022-11-25T14:38:59.805Z,2.20
2022-11-25T14:41:55.426Z,3.10
2022-11-25T14:44:52.747Z,2.70
2022-11-25T14:47:39.437Z,3.80
2022-11-25T14:50:40.961Z,3.20
2022-11-25T14:53:29.176Z,3.38
2022-11-25T14:56:22.404Z,2.60
2022-11-25T14:59:10.562Z,2.58
2022-11-25T15:01:57.105Z,3.75
2022-11-25T15:04:43.702Z,4.03
2022-11-25T15:07:31.436Z,3.67
2022-11-25T15:10:43.781Z,4.07
2022-11-25T15:13:32.116Z,3.47
2022-11-25T15:16:25.349Z,3.53
2022-11-25T15:19:20.638Z,3.30
2022-11-25T15:22:24.354Z,3.20
2022-11-25T15:25:15.434Z,3.25
2022-11-25T15:28:02.555Z,3.72
2022-11-25T15:31:00.964Z,3.65
2022-11-25T15:33:54.377Z,3.33
2022-11-25T15:36:41.599Z,3.28
2022-11-25T15:39:28.098Z,3.53
2022-11-25T15:42:21.841Z,4.82
2022-11-25T15:45:11.308Z,5.03
2022-11-25T15:47:57.556Z,5.00
2022-11-25T15:50:43.963Z,5.10
2022-11-25T15:53:36.806Z,5.32
2022-11-25T15:56:26.934Z,4.15
2022-11-25T15:59:50.516Z,3.47
2022-11-25T16:02:42.915Z,3.95
2022-11-25T16:05:37.380Z,3.95
2022-11-25T16:08:35.715Z,3.40
2022-11-25T16:11:23.561Z,3.67
2022-11-25T16:14:33.869Z,3.05
2022-11-25T16:17:19.903Z,3.30
2022-11-25T16:20:16.654Z,3.05
2022-11-25T16:23:08.296Z,3.80
2022-11-25T16:26:24.593Z,4.43
2022-11-25T16:29:19.526Z,6.03
2022-11-25T16:32:17.729Z,3.72
2022-11-25T16:35:22.310Z,3.65
2022-11-25T16:38:10.595Z,3.78
2022-11-25T16:40:57.002Z,3.08
2022-11-25T16:43:42.957Z,3.80
2022-11-25T16:46:28.941Z,3.83
2022-11-25T16:49:17.087Z,4.97
2022-11-25T16:52:03.006Z,4.00
2022-11-25T16:54:48.942Z,3.80
2022-11-25T16:57:36.024Z,4.20
2022-11-25T17:03:12.454Z,4.47
2022-11-25T17:05:59.991Z,4.53
2022-11-25T17:08:46.930Z,4.38
2022-11-25T17:11:47.025Z,5.00
2022-11-25T17:14:35.711Z,5.30
2022-11-25T17:17:25.139Z,4.97
2022-11-25T17:20:16.104Z,5.38
2022-11-25T17:23:02.421Z,6.55
2022-11-25T17:25:49.911Z,6.78
2022-11-25T17:28:36.133Z,7.13
2022-11-25T17:31:26.312Z,7.53
2022-11-25T17:34:16.207Z,6.88
2022-11-25T17:37:04.718Z,5.60
2022-11-25T17:39:53.391Z,5.32
2022-11-25T17:42:40.833Z,5.65
2022-11-25T17:45:27.102Z,5.43
2022-11-25T17:48:16.719Z,5.95
2022-11-25T17:51:07.240Z,5.75
2022-11-25T17:53:53.552Z,5.40
2022-11-25T17:56:41.803Z,5.85
2022-11-25T17:59:31.798Z,5.85
2022-11-25T18:02:21.438Z,5.60
2022-11-25T18:05:20.664Z,5.20
2022-11-25T18:08:06.957Z,5.20
2022-11-25T18:10:53.365Z,5.07
2022-11-25T18:13:41.573Z,5.75
2022-11-25T18:16:29.499Z,4.97
2022-11-25T18:19:15.663Z,5.45
2022-11-25T18:22:12.759Z,5.40
2022-11-25T18:25:03.150Z,5.25
2022-11-25T18:27:56.264Z,5.03
2022-11-25T18:30:43.089Z,5.13
2022-11-25T18:33:30.038Z,4.75
2022-11-25T18:36:16.576Z,4.80
2022-11-25T18:39:02.716Z,5.18
2022-11-25T18:41:50.068Z,5.80
2022-11-25T18:44:41.969Z,5.10
2022-11-25T18:47:28.278Z,5.00
2022-11-25T18:50:19.153Z,4.93
2022-11-25T18:53:05.291Z,5.03
2022-11-25T18:55:51.399Z,5.45
2022-11-25T18:58:37.299Z,5.20
2022-11-25T19:01:23.926Z,5.88
2022-11-25T19:04:16.156Z,5.68
2022-11-25T19:07:02.429Z,5.57
2022-11-25T19:09:48.262Z,6.10
2022-11-25T19:12:34.206Z,4.35
2022-11-25T19:15:23.739Z,7.10
2022-11-25T19:18:13.852Z,5.90
2022-11-25T19:20:59.968Z,6.18
2022-11-25T19:23:46.987Z,6.40
2022-11-25T19:26:39.013Z,6.93
2022-11-25T19:29:30.584Z,6.90
2022-11-25T19:32:22.753Z,7.40
2022-11-25T19:35:14.444Z,7.32
2022-11-25T19:38:00.489Z,6.78
2022-11-25T19:40:46.492Z,7.65
2022-11-25T19:43:32.609Z,6.78
2022-11-25T19:46:32.934Z,7.82
2022-11-25T19:49:23.945Z,7.50
2022-11-25T19:52:26.853Z,8.02
2022-11-25T19:55:18.978Z,7.68
2022-11-25T19:58:04.911Z,7.50
2022-11-25T20:00:50.929Z,6.95
2022-11-25T20:03:37.729Z,6.65
2022-11-25T20:06:24.108Z,6.75
2022-11-25T20:09:13.673Z,6.55
2022-11-25T20:12:08.026Z,6.43
2022-11-25T20:14:57.037Z,7.13
2022-11-25T20:17:46.536Z,7.60
2022-11-25T20:20:38.035Z,8.07
2022-11-25T20:23:41.797Z,7.22
2022-11-25T20:26:38.148Z,7.28
2022-11-25T20:29:30.274Z,7.20
2022-11-25T20:32:29.561Z,6.78
2022-11-25T20:35:16.432Z,7.50
2022-11-25T20:38:02.653Z,6.82
2022-11-25T20:40:51.737Z,6.93
2022-11-25T20:43:41.534Z,6.65
2022-11-25T20:46:30.029Z,6.30
2022-11-25T20:49:27.475Z,6.25
2022-11-25T20:52:31.933Z,5.95
2022-11-25T20:55:23.757Z,5.63
2022-11-25T20:58:29.200Z,5.57
2022-11-25T21:01:16.896Z,5.47
2022-11-25T21:04:03.396Z,6.45
2022-11-25T21:06:49.289Z,6.68
2022-11-25T21:09:36.175Z,6.22
2022-11-25T21:12:22.090Z,6.22
2022-11-25T21:15:22.400Z,6.10
2022-11-25T21:18:08.224Z,6.22
2022-11-25T21:20:56.424Z,6.10
2022-11-25T21:23:43.708Z,6.93
2022-11-25T21:26:29.937Z,8.20
2022-11-25T21:29:17.392Z,7.05
2022-11-25T21:32:06.188Z,6.90
2022-11-25T21:34:52.657Z,8.07
2022-11-25T21:37:40.823Z,6.97
2022-11-25T21:40:38.688Z,6.45
2022-11-25T21:43:33.820Z,6.45
2022-11-25T21:46:25.449Z,7.20
2022-11-25T21:49:12.072Z,8.02
2022-11-25T21:51:58.088Z,7.85
2022-11-25T21:54:44.392Z,6.25
2022-11-25T21:57:31.406Z,6.90
2022-11-25T22:00:20.063Z,7.28
2022-11-25T22:03:14.604Z,8.57
2022-11-25T22:06:01.069Z,8.05
2022-11-25T22:08:47.301Z,8.02
2022-11-25T22:11:37.028Z,7.70
2022-11-25T22:14:34.165Z,7.70
2022-11-25T22:20:20.355Z,7.50
2022-11-25T22:23:16.595Z,7.25
2022-11-25T22:26:04.881Z,7.85
2022-11-25T22:28:52.966Z,7.43
2022-11-25T22:31:39.043Z,8.52
2022-11-25T22:34:25.538Z,8.40
2022-11-25T22:37:20.511Z,8.10
2022-11-25T22:40:07.313Z,9.05
2022-11-25T22:42:55.993Z,8.13
2022-11-25T22:45:41.994Z,8.00
2022-11-25T22:48:38.830Z,8.50
2022-11-25T22:51:27.373Z,9.00
2022-11-25T22:54:13.405Z,8.90
2022-11-25T22:56:59.997Z,8.70
2022-11-25T22:59:46.041Z,7.63
2022-11-25T23:02:35.039Z,8.00
2022-11-25T23:05:33.053Z,8.38
2022-11-25T23:08:25.240Z,7.75
2022-11-25T23:11:17.484Z,7.15
2022-11-25T23:14:03.627Z,6.30
2022-11-25T23:16:49.555Z,4.50
2022-11-25T23:19:35.560Z,6.70
2022-11-25T23:22:21.863Z,7.25
2022-11-25T23:25:17.733Z,7.10
2022-11-25T23:28:04.420Z,6.55
2022-11-25T23:33:46.051Z,5.85
2022-11-25T23:36:47.485Z,6.43
2022-11-25T23:39:33.837Z,7.40
2022-11-25T23:42:20.608Z,6.63
2022-11-25T23:45:09.296Z,7.07
2022-11-25T23:47:56.914Z,6.10
2022-11-25T23:50:43.281Z,6.45
2022-11-25T23:53:32.959Z,5.75
2022-11-25T23:56:19.786Z,6.03
2022-11-25T23:59:13.711Z,5.70
